createdAt,value
2022-10-15T00:00:27.803Z,4.80
2022-10-15T00:03:30.306Z,5.37
2022-10-15T00:06:33.231Z,5.07
2022-10-15T00:09:35.723Z,5.60
2022-10-15T00:12:40.281Z,5.43
2022-10-15T00:15:43.162Z,5.10
2022-10-15T00:18:46.715Z,4.83
2022-10-15T00:21:49.268Z,5.43
2022-10-15T00:24:51.816Z,5.70
2022-10-15T00:27:55.629Z,5.40
2022-10-15T00:31:05.946Z,5.80
2022-10-15T00:34:08.690Z,5.90
2022-10-15T00:37:11.270Z,6.00
2022-10-15T00:40:15.524Z,6.10
2022-10-15T00:43:34.238Z,6.17
2022-10-15T00:46:41.074Z,7.50
2022-10-15T00:49:48.081Z,7.20
2022-10-15T00:53:01.234Z,6.53
2022-10-15T00:56:04.124Z,7.37
2022-10-15T00:59:08.988Z,7.33
2022-10-15T01:02:11.895Z,8.00
2022-10-15T01:05:16.943Z,7.23
2022-10-15T01:08:19.612Z,8.73
2022-10-15T01:11:36.784Z,8.20
2022-10-15T01:14:51.101Z,9.70
2022-10-15T01:17:58.211Z,10.27
2022-10-15T01:21:11.026Z,10.30
2022-10-15T01:24:38.719Z,10.40
2022-10-15T01:27:44.516Z,9.73
2022-10-15T01:30:52.250Z,9.27
2022-10-15T01:34:03.059Z,11.50
2022-10-15T01:37:10.940Z,10.13
2022-10-15T01:40:18.855Z,10.70
2022-10-15T01:43:27.475Z,11.00
2022-10-15T01:46:38.164Z,10.13
2022-10-15T01:49:44.185Z,11.97
2022-10-15T01:52:47.195Z,11.67
2022-10-15T01:55:50.255Z,11.17
2022-10-15T01:58:56.261Z,11.60
2022-10-15T02:02:00.139Z,12.53
2022-10-15T02:05:03.204Z,12.47
2022-10-15T02:08:14.999Z,11.80
2022-10-15T02:11:18.971Z,11.43
2022-10-15T02:14:30.481Z,12.40
2022-10-15T02:17:40.200Z,12.00
2022-10-15T02:20:49.706Z,14.43
2022-10-15T02:23:54.138Z,15.00
2022-10-15T02:27:00.102Z,15.10
2022-10-15T02:30:04.755Z,15.57
2022-10-15T02:33:10.044Z,15.90
2022-10-15T02:36:13.382Z,15.60
2022-10-15T02:39:19.358Z,15.03
2022-10-15T02:42:22.470Z,16.53
2022-10-15T02:45:25.049Z,15.47
2022-10-15T02:48:28.873Z,15.70
2022-10-15T02:51:33.335Z,17.00
2022-10-15T02:54:35.819Z,16.40
2022-10-15T02:57:38.293Z,16.83
2022-10-15T03:00:40.842Z,16.87
2022-10-15T03:03:44.723Z,16.93
2022-10-15T03:06:47.268Z,17.60
2022-10-15T03:09:49.817Z,17.87
2022-10-15T03:12:52.285Z,18.37
2022-10-15T03:15:54.983Z,17.63
2022-10-15T03:18:58.824Z,18.20
2022-10-15T03:22:01.289Z,17.37
2022-10-15T03:25:04.162Z,19.70
2022-10-15T03:28:06.658Z,18.23
2022-10-15T03:31:09.141Z,17.60
2022-10-15T03:34:12.983Z,17.60
2022-10-15T03:37:15.481Z,19.07
2022-10-15T03:40:18.173Z,18.13
2022-10-15T03:43:20.648Z,18.07
2022-10-15T03:46:23.171Z,17.33
2022-10-15T03:49:26.991Z,18.27
2022-10-15T03:52:29.683Z,18.53
2022-10-15T03:55:32.339Z,17.27
2022-10-15T03:58:34.860Z,17.60
2022-10-15T04:01:37.395Z,17.00
2022-10-15T04:04:41.367Z,16.90
2022-10-15T04:07:43.854Z,16.07
2022-10-15T04:10:46.805Z,16.40
2022-10-15T04:13:50.919Z,15.90
2022-10-15T04:16:53.405Z,15.40
2022-10-15T04:19:57.217Z,14.43
2022-10-15T04:22:59.697Z,12.67
2022-10-15T04:26:02.380Z,13.53
2022-10-15T04:29:05.382Z,12.87
2022-10-15T04:32:08.001Z,13.73
2022-10-15T04:35:11.890Z,12.70
2022-10-15T04:38:14.371Z,12.83
2022-10-15T04:41:16.912Z,12.67
2022-10-15T04:44:19.664Z,13.17
2022-10-15T04:47:22.398Z,12.00
2022-10-15T04:50:26.400Z,12.73
2022-10-15T04:53:28.915Z,13.33
2022-10-15T04:56:31.454Z,14.03
2022-10-15T04:59:33.946Z,13.93
2022-10-15T05:02:36.500Z,13.67
2022-10-15T05:05:43.378Z,14.70
2022-10-15T05:08:47.196Z,14.83
2022-10-15T05:11:49.735Z,14.20
2022-10-15T05:14:52.226Z,13.80
2022-10-15T05:17:54.905Z,13.90
2022-10-15T05:21:02.017Z,14.33
2022-10-15T05:24:05.480Z,13.73
2022-10-15T05:27:07.971Z,14.57
2022-10-15T05:30:11.452Z,16.00
2022-10-15T05:33:13.925Z,16.40
2022-10-15T05:36:20.089Z,17.93
2022-10-15T05:39:22.860Z,17.27
2022-10-15T05:42:25.321Z,18.13
2022-10-15T05:45:27.847Z,18.20
2022-10-15T05:48:30.437Z,35.80
2022-10-15T05:51:34.285Z,17.53
2022-10-15T05:54:36.769Z,16.73
2022-10-15T05:57:39.248Z,17.20
2022-10-15T06:00:41.738Z,16.67
2022-10-15T06:03:44.779Z,17.00
2022-10-15T06:06:48.599Z,16.73
2022-10-15T06:09:51.708Z,16.30
2022-10-15T06:12:54.178Z,17.13
2022-10-15T06:15:56.646Z,17.73
2022-10-15T06:18:59.125Z,16.27
2022-10-15T06:22:02.924Z,18.87
2022-10-15T06:25:06.242Z,18.17
2022-10-15T06:28:09.551Z,19.43
2022-10-15T06:31:12.341Z,20.07
2022-10-15T06:34:14.811Z,20.40
2022-10-15T06:37:18.644Z,18.23
2022-10-15T06:40:21.138Z,17.17
2022-10-15T06:43:23.641Z,17.57
2022-10-15T06:46:26.117Z,17.07
2022-10-15T06:49:28.592Z,17.30
2022-10-15T06:52:33.171Z,16.93
2022-10-15T06:55:36.295Z,16.93
2022-10-15T06:58:38.796Z,16.60
2022-10-15T07:01:42.316Z,18.47
2022-10-15T07:04:44.978Z,17.30
2022-10-15T07:07:53.477Z,18.20
2022-10-15T07:10:55.950Z,17.70
2022-10-15T07:13:58.444Z,16.90
2022-10-15T07:17:00.943Z,17.87
2022-10-15T07:20:03.506Z,18.33
2022-10-15T07:23:07.334Z,17.87
2022-10-15T07:26:09.820Z,17.90
2022-10-15T07:29:12.299Z,18.53
2022-10-15T07:32:15.013Z,17.40
2022-10-15T07:35:17.578Z,17.47
2022-10-15T07:38:21.402Z,18.23
2022-10-15T07:41:23.987Z,18.13
2022-10-15T07:44:26.486Z,17.00
2022-10-15T07:47:29.136Z,17.87
2022-10-15T07:50:34.269Z,18.47
2022-10-15T07:53:40.061Z,18.43
2022-10-15T07:56:42.548Z,19.83
2022-10-15T07:59:45.091Z,17.47
2022-10-15T08:02:47.656Z,20.20
2022-10-15T08:05:53.041Z,19.17
2022-10-15T08:08:56.857Z,18.40
2022-10-15T08:11:59.339Z,21.37
2022-10-15T08:15:01.876Z,27.30
2022-10-15T08:18:04.554Z,22.50
2022-10-15T08:21:08.086Z,27.73
2022-10-15T08:24:11.938Z,22.37
2022-10-15T08:27:14.410Z,17.97
2022-10-15T08:30:17.160Z,17.97
2022-10-15T08:33:19.667Z,20.80
2022-10-15T08:36:22.140Z,16.60
2022-10-15T08:39:26.613Z,16.83
2022-10-15T08:42:33.294Z,16.53
2022-10-15T08:45:44.949Z,16.60
2022-10-15T08:48:50.763Z,15.27
2022-10-15T08:51:57.991Z,16.17
2022-10-15T08:55:03.234Z,15.13
2022-10-15T08:58:15.011Z,15.13
2022-10-15T09:01:24.725Z,15.43
2022-10-15T09:04:32.720Z,13.47
2022-10-15T09:07:42.709Z,13.93
2022-10-15T09:10:50.937Z,14.27
2022-10-15T09:13:53.859Z,13.37
2022-10-15T09:16:56.397Z,13.20
2022-10-15T09:19:59.646Z,12.63
2022-10-15T09:23:02.435Z,11.53
2022-10-15T09:26:14.075Z,13.30
2022-10-15T09:29:22.360Z,12.67
2022-10-15T09:32:31.598Z,12.17
2022-10-15T09:35:40.285Z,11.90
2022-10-15T09:38:55.042Z,11.23
2022-10-15T09:42:09.387Z,10.80
2022-10-15T09:45:15.727Z,11.33
2022-10-15T09:48:20.649Z,12.60
2022-10-15T09:51:30.484Z,11.83
2022-10-15T09:54:43.879Z,11.33
2022-10-15T09:57:52.450Z,10.67
2022-10-15T10:01:00.868Z,12.93
2022-10-15T10:04:18.305Z,10.83
2022-10-15T10:07:31.222Z,9.50
2022-10-15T10:10:35.882Z,10.10
2022-10-15T10:13:45.550Z,9.93
2022-10-15T10:17:15.017Z,9.47
2022-10-15T10:20:20.644Z,9.90
2022-10-15T10:23:25.287Z,10.03
2022-10-15T10:26:27.861Z,10.07
2022-10-15T10:29:37.452Z,9.40
2022-10-15T10:32:40.864Z,8.90
2022-10-15T10:35:46.750Z,8.02
2022-10-15T10:38:58.827Z,8.57
2022-10-15T10:42:03.366Z,7.50
2022-10-15T10:45:19.592Z,11.10
2022-10-15T10:48:24.793Z,6.38
2022-10-15T10:51:30.650Z,5.50
2022-10-15T10:54:34.422Z,6.75
2022-10-15T10:57:44.986Z,6.60
2022-10-15T11:00:52.226Z,7.82
2022-10-15T11:03:54.817Z,6.40
2022-10-15T11:07:04.308Z,7.25
2022-10-15T11:10:17.565Z,6.32
2022-10-15T11:13:47.416Z,5.55
2022-10-15T11:16:58.964Z,5.00
2022-10-15T11:20:25.666Z,5.22
2022-10-15T11:23:46.683Z,5.10
2022-10-15T11:27:10.503Z,4.72
2022-10-15T11:30:31.211Z,5.05
2022-10-15T11:33:49.989Z,5.50
2022-10-15T11:37:09.928Z,5.30
2022-10-15T11:40:21.460Z,4.75
2022-10-15T11:43:42.459Z,4.65
2022-10-15T11:46:51.861Z,3.33
2022-10-15T11:50:14.310Z,4.15
2022-10-15T11:53:46.506Z,6.00
2022-10-15T11:56:51.865Z,3.10
2022-10-15T11:59:59.478Z,2.78
2022-10-15T12:03:08.175Z,2.70
2022-10-15T12:06:16.879Z,3.13
2022-10-15T12:09:25.865Z,2.75
2022-10-15T12:12:42.048Z,2.65
2022-10-15T12:15:51.681Z,2.30
2022-10-15T12:19:02.587Z,2.15
2022-10-15T12:22:11.295Z,2.60
2022-10-15T12:25:41.597Z,2.50
2022-10-15T12:28:51.354Z,2.33
2022-10-15T12:31:56.245Z,2.13
2022-10-15T12:35:01.691Z,2.55
2022-10-15T12:38:22.509Z,3.20
2022-10-15T12:41:36.504Z,3.60
2022-10-15T12:44:39.704Z,2.75
2022-10-15T12:47:49.757Z,2.72
2022-10-15T12:51:39.382Z,2.47
2022-10-15T12:54:45.105Z,2.13
2022-10-15T12:58:00.389Z,2.30
2022-10-15T13:01:07.952Z,1.58
2022-10-15T13:04:11.703Z,1.60
2022-10-15T13:07:15.750Z,1.98
2022-10-15T13:10:24.494Z,1.88
2022-10-15T13:13:30.057Z,2.00
2022-10-15T13:16:32.854Z,2.50
2022-10-15T13:19:40.211Z,2.67
2022-10-15T13:22:42.718Z,2.67
2022-10-15T13:25:46.573Z,3.70
2022-10-15T13:28:50.643Z,2.85
2022-10-15T13:31:56.013Z,2.70
2022-10-15T13:34:59.647Z,2.97
2022-10-15T14:05:29.753Z,6.60
2022-10-15T14:08:35.573Z,4.70
2022-10-15T14:11:39.409Z,5.80
2022-10-15T14:14:43.897Z,6.13
2022-10-15T14:17:52.226Z,5.33
2022-10-15T14:20:56.134Z,7.20
2022-10-15T14:24:07.183Z,8.03
2022-10-15T14:27:16.444Z,7.63
2022-10-15T14:30:26.791Z,5.93
2022-10-15T14:33:42.506Z,7.47
2022-10-15T14:36:46.330Z,9.20
2022-10-15T14:39:49.479Z,8.47
2022-10-15T14:43:04.138Z,9.93
2022-10-15T14:46:09.145Z,8.80
2022-10-15T14:49:31.341Z,7.97
2022-10-15T14:52:38.054Z,8.27
2022-10-15T14:55:44.913Z,7.97
2022-10-15T14:58:51.997Z,7.13
2022-10-15T15:01:59.944Z,8.00
2022-10-15T15:05:09.340Z,8.00
2022-10-15T15:08:13.351Z,8.80
2022-10-15T15:11:20.330Z,8.20
2022-10-15T15:14:25.955Z,7.20
2022-10-15T15:17:30.864Z,8.50
2022-10-15T15:20:33.441Z,9.40
2022-10-15T15:23:37.523Z,8.70
2022-10-15T15:26:40.041Z,8.00
2022-10-15T15:29:43.092Z,8.20
2022-10-15T15:33:03.669Z,8.47
2022-10-15T15:36:10.647Z,8.20
2022-10-15T15:39:14.773Z,9.07
2022-10-15T15:42:19.406Z,8.97
2022-10-15T15:45:23.705Z,9.67
2022-10-15T15:48:26.232Z,9.73
2022-10-15T15:51:31.801Z,17.37
2022-10-15T15:54:35.732Z,15.37
2022-10-15T15:57:38.804Z,12.70
2022-10-15T16:00:41.299Z,11.70
2022-10-15T16:03:43.781Z,10.83
2022-10-15T16:06:48.697Z,9.90
2022-10-15T16:09:52.529Z,10.73
2022-10-15T16:12:56.196Z,9.57
2022-10-15T16:15:59.110Z,10.30
2022-10-15T16:19:01.592Z,9.83
2022-10-15T16:22:04.110Z,10.80
2022-10-15T16:25:09.441Z,11.30
2022-10-15T16:28:12.238Z,12.27
2022-10-15T16:31:16.669Z,14.00
2022-10-15T16:34:19.136Z,10.70
2022-10-15T16:37:21.655Z,13.03
2022-10-15T16:40:25.512Z,15.57
2022-10-15T16:43:28.116Z,28.73
2022-10-15T16:46:30.611Z,28.20
2022-10-15T16:49:33.088Z,15.87
2022-10-15T16:52:35.902Z,8.70
2022-10-15T16:55:39.698Z,9.03
2022-10-15T16:58:42.589Z,8.03
2022-10-15T17:01:45.116Z,8.07
2022-10-15T17:04:47.658Z,8.93
2022-10-15T17:07:50.160Z,7.90
2022-10-15T17:10:53.997Z,6.67
2022-10-15T17:13:58.971Z,7.20
2022-10-15T17:17:01.449Z,7.73
2022-10-15T17:20:03.939Z,6.53
2022-10-15T17:23:06.427Z,5.97
2022-10-15T17:26:12.167Z,6.03
2022-10-15T17:29:19.801Z,5.60
2022-10-15T17:32:22.497Z,6.17
2022-10-15T17:35:25.577Z,6.00
2022-10-15T17:38:28.048Z,5.97
2022-10-15T17:41:32.434Z,6.50
2022-10-15T17:44:34.919Z,6.40
2022-10-15T17:47:38.455Z,8.00
2022-10-15T17:50:45.241Z,7.37
2022-10-15T17:53:50.653Z,6.97
2022-10-15T17:56:54.500Z,4.80
2022-10-15T17:59:57.022Z,4.73
2022-10-15T18:02:59.510Z,4.67
2022-10-15T18:06:07.768Z,4.53
2022-10-15T18:09:10.250Z,4.30
2022-10-15T18:12:14.167Z,4.90
2022-10-15T18:15:16.703Z,3.83
2022-10-15T18:18:19.226Z,4.07
2022-10-15T18:21:23.994Z,3.87
2022-10-15T18:24:26.552Z,4.10
2022-10-15T18:27:30.372Z,4.20
2022-10-15T18:30:32.845Z,4.13
2022-10-15T18:33:39.750Z,4.10
2022-10-15T18:36:43.489Z,4.20
2022-10-15T18:39:46.177Z,4.60
2022-10-15T18:42:50.138Z,5.43
2022-10-15T18:45:52.635Z,4.80
2022-10-15T18:48:55.716Z,4.70
2022-10-15T18:52:00.420Z,3.50
2022-10-15T18:55:09.929Z,4.40
2022-10-15T18:58:13.742Z,10.97
2022-10-15T19:01:27.424Z,7.27
2022-10-15T19:04:29.965Z,7.60
2022-10-15T19:07:32.614Z,7.13
2022-10-15T19:10:35.126Z,6.43
2022-10-15T19:13:38.960Z,9.83
2022-10-15T19:16:41.433Z,12.30
2022-10-15T19:19:48.312Z,5.57
2022-10-15T19:22:50.803Z,4.60
2022-10-15T19:25:53.319Z,7.93
2022-10-15T19:28:57.426Z,4.07
2022-10-15T19:31:59.974Z,6.20
2022-10-15T19:35:03.629Z,6.27
2022-10-15T19:38:06.430Z,5.83
2022-10-15T19:41:08.923Z,11.40
2022-10-15T19:44:13.932Z,7.50
2022-10-15T19:47:19.504Z,6.40
2022-10-15T19:50:21.959Z,5.90
2022-10-15T19:53:24.454Z,5.07
2022-10-15T19:56:28.070Z,4.53
2022-10-15T19:59:31.869Z,5.03
2022-10-15T20:02:34.374Z,3.90
2022-10-15T20:05:36.858Z,3.47
2022-10-15T20:08:39.354Z,3.70
2022-10-15T20:11:42.237Z,4.60
2022-10-15T20:14:46.077Z,7.10
2022-10-15T20:17:48.624Z,4.80
2022-10-15T20:20:51.138Z,4.40
2022-10-15T20:23:53.618Z,3.90
2022-10-15T20:26:56.092Z,4.33
2022-10-15T20:29:59.911Z,4.43
2022-10-15T20:33:02.418Z,3.80
2022-10-15T20:36:06.234Z,3.80
2022-10-15T20:39:08.890Z,4.20
2022-10-15T20:42:11.417Z,8.13
2022-10-15T20:45:15.323Z,11.33
2022-10-15T20:48:21.558Z,7.80
2022-10-15T20:51:27.659Z,6.20
2022-10-15T20:54:31.618Z,11.30
2022-10-15T20:57:34.584Z,8.63
2022-10-15T21:00:38.462Z,6.87
2022-10-15T21:03:40.959Z,7.53
2022-10-15T21:06:43.501Z,7.07
2022-10-15T21:09:46.034Z,5.40
2022-10-15T21:12:48.517Z,5.37
2022-10-15T21:15:58.389Z,5.20
2022-10-15T21:19:00.881Z,5.30
2022-10-15T21:22:03.358Z,4.87
2022-10-15T21:25:06.925Z,11.03
2022-10-15T21:28:09.393Z,9.30
2022-10-15T21:31:15.527Z,5.33
2022-10-15T21:34:19.979Z,5.20
2022-10-15T21:37:22.580Z,16.23
2022-10-15T21:40:25.287Z,31.80
2022-10-15T21:43:28.934Z,6.93
2022-10-15T21:46:33.166Z,5.77
2022-10-15T21:49:35.664Z,6.00
2022-10-15T21:52:38.141Z,6.40
2022-10-15T21:55:40.711Z,6.03
2022-10-15T21:58:43.297Z,5.60
2022-10-15T22:01:47.149Z,5.53
2022-10-15T22:04:49.719Z,5.43
2022-10-15T22:07:52.258Z,4.67
2022-10-15T22:10:55.175Z,4.43
2022-10-15T22:13:59.276Z,3.90
2022-10-15T22:17:03.129Z,3.90
2022-10-15T22:20:06.552Z,3.93
2022-10-15T22:23:09.101Z,3.73
2022-10-15T22:26:12.128Z,4.07
2022-10-15T22:29:19.398Z,3.60
2022-10-15T22:32:23.635Z,3.60
2022-10-15T22:35:26.383Z,4.07
2022-10-15T22:38:29.054Z,4.37
2022-10-15T22:41:33.226Z,3.73
2022-10-15T22:44:35.971Z,4.20
2022-10-15T22:47:39.805Z,4.20
2022-10-15T22:50:42.365Z,4.73
2022-10-15T22:53:44.935Z,4.53
2022-10-15T22:56:47.408Z,4.73
2022-10-15T22:59:55.856Z,4.53
2022-10-15T23:03:02.466Z,4.53
2022-10-15T23:06:05.560Z,4.97
2022-10-15T23:09:08.817Z,4.70
2022-10-15T23:12:11.293Z,6.13
2022-10-15T23:15:13.791Z,5.40
2022-10-15T23:18:17.672Z,5.93
2022-10-15T23:21:26.382Z,6.73
2022-10-15T23:24:29.893Z,5.50
2022-10-15T23:27:32.427Z,5.63
2022-10-15T23:30:34.896Z,6.13
2022-10-15T23:33:38.716Z,6.63
2022-10-15T23:36:41.228Z,6.10
2022-10-15T23:39:43.724Z,6.10
2022-10-15T23:42:46.261Z,6.60
2022-10-15T23:45:48.744Z,6.27
2022-10-15T23:48:52.732Z,5.77
2022-10-15T23:51:55.244Z,5.67
2022-10-15T23:54:57.712Z,5.67
2022-10-15T23:58:00.194Z,5.83
